sensor_id;sensor_type;location;lat;lon;timestamp;P1;durP1;ratioP1;P2;durP2;ratioP2
20393;SDS011;10356;50.544;9.642;2023-07-02T00:01:48;4.70;;;4.15;;
20393;SDS011;10356;50.544;9.642;2023-07-02T00:04:15;5.60;;;3.80;;
20393;SDS011;10356;50.544;9.642;2023-07-02T00:06:44;5.03;;;3.83;;
20393;SDS011;10356;50.544;9.642;2023-07-02T00:09:11;5.75;;;3.75;;
20393;SDS011;10356;50.544;9.642;2023-07-02T00:11:38;8.05;;;4.15;;
20393;SDS011;10356;50.544;9.642;2023-07-02T00:14:06;5.95;;;4.00;;
20393;SDS011;10356;50.544;9.642;2023-07-02T00:16:35;4.70;;;3.60;;
20393;SDS011;10356;50.544;9.642;2023-07-02T00:19:01;5.07;;;4.03;;
20393;SDS011;10356;50.544;9.642;2023-07-02T00:21:28;7.03;;;3.67;;
20393;SDS011;10356;50.544;9.642;2023-07-02T00:23:58;5.22;;;3.80;;
20393;SDS011;10356;50.544;9.642;2023-07-02T00:26:26;4.75;;;3.78;;
20393;SDS011;10356;50.544;9.642;2023-07-02T00:28:53;6.97;;;3.95;;
20393;SDS011;10356;50.544;9.642;2023-07-02T00:31:21;4.25;;;3.85;;
20393;SDS011;10356;50.544;9.642;2023-07-02T00:33:49;7.22;;;4.43;;
20393;SDS011;10356;50.544;9.642;2023-07-02T00:36:16;9.82;;;3.80;;
20393;SDS011;10356;50.544;9.642;2023-07-02T00:38:44;8.13;;;3.53;;
20393;SDS011;10356;50.544;9.642;2023-07-02T00:41:11;4.05;;;3.30;;
20393;SDS011;10356;50.544;9.642;2023-07-02T00:43:38;4.75;;;3.83;;
20393;SDS011;10356;50.544;9.642;2023-07-02T00:46:08;7.07;;;3.60;;
20393;SDS011;10356;50.544;9.642;2023-07-02T00:48:38;5.72;;;3.78;;
20393;SDS011;10356;50.544;9.642;2023-07-02T00:51:06;5.85;;;4.00;;
20393;SDS011;10356;50.544;9.642;2023-07-02T00:53:32;6.43;;;3.88;;
20393;SDS011;10356;50.544;9.642;2023-07-02T00:55:59;4.78;;;3.25;;
20393;SDS011;10356;50.544;9.642;2023-07-02T00:58:25;4.30;;;3.88;;
20393;SDS011;10356;50.544;9.642;2023-07-02T01:00:52;5.30;;;3.90;;
20393;SDS011;10356;50.544;9.642;2023-07-02T01:03:21;7.80;;;4.00;;
20393;SDS011;10356;50.544;9.642;2023-07-02T01:05:47;6.45;;;4.13;;
20393;SDS011;10356;50.544;9.642;2023-07-02T01:08:15;6.53;;;3.70;;
20393;SDS011;10356;50.544;9.642;2023-07-02T01:10:42;6.75;;;4.07;;
20393;SDS011;10356;50.544;9.642;2023-07-02T01:13:10;8.30;;;4.07;;
20393;SDS011;10356;50.544;9.642;2023-07-02T01:15:40;6.72;;;4.13;;
20393;SDS011;10356;50.544;9.642;2023-07-02T01:18:08;5.57;;;4.35;;
20393;SDS011;10356;50.544;9.642;2023-07-02T01:20:38;6.10;;;3.95;;
20393;SDS011;10356;50.544;9.642;2023-07-02T01:23:06;6.82;;;4.00;;
20393;SDS011;10356;50.544;9.642;2023-07-02T01:25:34;6.63;;;3.70;;
20393;SDS011;10356;50.544;9.642;2023-07-02T01:28:01;5.82;;;3.88;;
20393;SDS011;10356;50.544;9.642;2023-07-02T01:30:28;6.45;;;3.83;;
20393;SDS011;10356;50.544;9.642;2023-07-02T01:32:54;10.95;;;4.18;;
20393;SDS011;10356;50.544;9.642;2023-07-02T01:35:21;7.72;;;3.95;;
20393;SDS011;10356;50.544;9.642;2023-07-02T01:37:49;4.95;;;3.90;;
20393;SDS011;10356;50.544;9.642;2023-07-02T01:40:16;6.63;;;3.63;;
20393;SDS011;10356;50.544;9.642;2023-07-02T01:42:42;5.22;;;3.38;;
20393;SDS011;10356;50.544;9.642;2023-07-02T01:45:09;5.30;;;3.60;;
20393;SDS011;10356;50.544;9.642;2023-07-02T01:47:36;6.68;;;4.28;;
20393;SDS011;10356;50.544;9.642;2023-07-02T01:50:03;8.45;;;4.20;;
20393;SDS011;10356;50.544;9.642;2023-07-02T01:52:31;4.30;;;3.95;;
20393;SDS011;10356;50.544;9.642;2023-07-02T01:55:00;5.47;;;4.30;;
20393;SDS011;10356;50.544;9.642;2023-07-02T01:57:27;9.90;;;5.10;;
20393;SDS011;10356;50.544;9.642;2023-07-02T01:59:55;9.20;;;5.07;;
20393;SDS011;10356;50.544;9.642;2023-07-02T02:02:22;6.25;;;5.75;;
20393;SDS011;10356;50.544;9.642;2023-07-02T02:04:48;7.63;;;5.32;;
20393;SDS011;10356;50.544;9.642;2023-07-02T02:07:14;6.63;;;5.35;;
20393;SDS011;10356;50.544;9.642;2023-07-02T02:09:41;6.22;;;4.50;;
20393;SDS011;10356;50.544;9.642;2023-07-02T02:12:09;6.95;;;4.57;;
20393;SDS011;10356;50.544;9.642;2023-07-02T02:14:35;4.95;;;4.45;;
20393;SDS011;10356;50.544;9.642;2023-07-02T02:17:02;4.80;;;4.20;;
20393;SDS011;10356;50.544;9.642;2023-07-02T02:19:29;5.20;;;4.47;;
20393;SDS011;10356;50.544;9.642;2023-07-02T02:21:55;5.75;;;4.30;;
20393;SDS011;10356;50.544;9.642;2023-07-02T02:24:22;4.68;;;4.28;;
20393;SDS011;10356;50.544;9.642;2023-07-02T02:26:48;5.93;;;4.60;;
20393;SDS011;10356;50.544;9.642;2023-07-02T02:29:16;5.80;;;5.05;;
20393;SDS011;10356;50.544;9.642;2023-07-02T02:31:42;6.22;;;5.63;;
20393;SDS011;10356;50.544;9.642;2023-07-02T02:34:09;6.00;;;5.38;;
20393;SDS011;10356;50.544;9.642;2023-07-02T02:36:35;6.22;;;5.10;;
20393;SDS011;10356;50.544;9.642;2023-07-02T02:39:03;9.68;;;5.10;;
20393;SDS011;10356;50.544;9.642;2023-07-02T02:41:30;4.95;;;4.45;;
20393;SDS011;10356;50.544;9.642;2023-07-02T02:43:56;7.38;;;5.28;;
20393;SDS011;10356;50.544;9.642;2023-07-02T02:46:24;6.03;;;5.28;;
20393;SDS011;10356;50.544;9.642;2023-07-02T02:48:51;8.57;;;5.50;;
20393;SDS011;10356;50.544;9.642;2023-07-02T02:51:17;7.47;;;5.97;;
20393;SDS011;10356;50.544;9.642;2023-07-02T02:53:44;7.38;;;5.82;;
20393;SDS011;10356;50.544;9.642;2023-07-02T02:56:11;10.85;;;5.82;;
20393;SDS011;10356;50.544;9.642;2023-07-02T02:58:37;8.38;;;5.45;;
20393;SDS011;10356;50.544;9.642;2023-07-02T03:01:04;6.20;;;5.60;;
20393;SDS011;10356;50.544;9.642;2023-07-02T03:03:36;6.40;;;5.80;;
20393;SDS011;10356;50.544;9.642;2023-07-02T03:06:04;8.38;;;5.50;;
20393;SDS011;10356;50.544;9.642;2023-07-02T03:08:30;6.68;;;6.00;;
20393;SDS011;10356;50.544;9.642;2023-07-02T03:10:57;7.60;;;6.47;;
20393;SDS011;10356;50.544;9.642;2023-07-02T03:13:23;9.65;;;5.82;;
20393;SDS011;10356;50.544;9.642;2023-07-02T03:15:50;8.05;;;6.50;;
20393;SDS011;10356;50.544;9.642;2023-07-02T03:18:16;8.43;;;6.00;;
20393;SDS011;10356;50.544;9.642;2023-07-02T03:20:44;8.52;;;6.30;;
20393;SDS011;10356;50.544;9.642;2023-07-02T03:23:10;8.95;;;6.10;;
20393;SDS011;10356;50.544;9.642;2023-07-02T03:25:37;10.90;;;5.95;;
20393;SDS011;10356;50.544;9.642;2023-07-02T03:28:03;11.73;;;6.88;;
20393;SDS011;10356;50.544;9.642;2023-07-02T03:30:30;12.60;;;5.85;;
20393;SDS011;10356;50.544;9.642;2023-07-02T03:32:57;8.27;;;6.15;;
20393;SDS011;10356;50.544;9.642;2023-07-02T03:35:23;9.38;;;6.30;;
20393;SDS011;10356;50.544;9.642;2023-07-02T03:37:51;13.18;;;6.45;;
20393;SDS011;10356;50.544;9.642;2023-07-02T03:40:18;7.80;;;6.70;;
20393;SDS011;10356;50.544;9.642;2023-07-02T03:42:44;13.52;;;7.35;;
20393;SDS011;10356;50.544;9.642;2023-07-02T03:45:10;9.48;;;7.60;;
20393;SDS011;10356;50.544;9.642;2023-07-02T03:47:37;11.23;;;7.05;;
20393;SDS011;10356;50.544;9.642;2023-07-02T03:50:04;7.80;;;7.10;;
20393;SDS011;10356;50.544;9.642;2023-07-02T03:52:32;7.70;;;6.95;;
20393;SDS011;10356;50.544;9.642;2023-07-02T03:54:59;7.93;;;7.22;;
20393;SDS011;10356;50.544;9.642;2023-07-02T03:57:26;8.05;;;7.35;;
20393;SDS011;10356;50.544;9.642;2023-07-02T03:59:53;7.05;;;6.45;;
20393;SDS011;10356;50.544;9.642;2023-07-02T04:02:19;6.93;;;6.10;;
20393;SDS011;10356;50.544;9.642;2023-07-02T04:04:46;7.40;;;5.53;;
20393;SDS011;10356;50.544;9.642;2023-07-02T04:07:12;8.73;;;5.13;;
20393;SDS011;10356;50.544;9.642;2023-07-02T04:09:38;7.53;;;5.72;;
20393;SDS011;10356;50.544;9.642;2023-07-02T04:12:07;6.10;;;4.97;;
20393;SDS011;10356;50.544;9.642;2023-07-02T04:14:34;8.50;;;5.72;;
20393;SDS011;10356;50.544;9.642;2023-07-02T04:17:01;9.35;;;5.55;;
20393;SDS011;10356;50.544;9.642;2023-07-02T04:19:28;6.53;;;5.80;;
20393;SDS011;10356;50.544;9.642;2023-07-02T04:21:54;10.75;;;5.97;;
20393;SDS011;10356;50.544;9.642;2023-07-02T04:24:21;8.15;;;6.15;;
20393;SDS011;10356;50.544;9.642;2023-07-02T04:26:47;8.20;;;6.20;;
20393;SDS011;10356;50.544;9.642;2023-07-02T04:29:15;9.95;;;6.40;;
20393;SDS011;10356;50.544;9.642;2023-07-02T04:31:42;7.95;;;5.47;;
20393;SDS011;10356;50.544;9.642;2023-07-02T04:34:08;11.05;;;6.40;;
20393;SDS011;10356;50.544;9.642;2023-07-02T04:36:35;6.53;;;5.70;;
20393;SDS011;10356;50.544;9.642;2023-07-02T04:39:01;8.77;;;5.85;;
20393;SDS011;10356;50.544;9.642;2023-07-02T04:41:28;9.93;;;5.72;;
20393;SDS011;10356;50.544;9.642;2023-07-02T04:43:55;9.27;;;5.07;;
20393;SDS011;10356;50.544;9.642;2023-07-02T04:46:22;9.10;;;5.53;;
20393;SDS011;10356;50.544;9.642;2023-07-02T04:48:49;8.80;;;5.38;;
20393;SDS011;10356;50.544;9.642;2023-07-02T04:51:15;7.15;;;4.75;;
20393;SDS011;10356;50.544;9.642;2023-07-02T04:53:42;6.90;;;4.88;;
20393;SDS011;10356;50.544;9.642;2023-07-02T04:56:08;7.75;;;4.38;;
20393;SDS011;10356;50.544;9.642;2023-07-02T04:58:35;7.95;;;4.47;;
20393;SDS011;10356;50.544;9.642;2023-07-02T05:01:01;7.47;;;4.47;;
20393;SDS011;10356;50.544;9.642;2023-07-02T05:03:29;10.50;;;4.30;;
20393;SDS011;10356;50.544;9.642;2023-07-02T05:05:56;6.25;;;3.78;;
20393;SDS011;10356;50.544;9.642;2023-07-02T05:08:22;5.40;;;3.58;;
20393;SDS011;10356;50.544;9.642;2023-07-02T05:10:49;6.90;;;3.60;;
20393;SDS011;10356;50.544;9.642;2023-07-02T05:13:15;6.57;;;3.45;;
20393;SDS011;10356;50.544;9.642;2023-07-02T05:15:42;5.30;;;3.90;;
20393;SDS011;10356;50.544;9.642;2023-07-02T05:18:08;5.90;;;3.40;;
20393;SDS011;10356;50.544;9.642;2023-07-02T05:20:36;4.47;;;2.88;;
20393;SDS011;10356;50.544;9.642;2023-07-02T05:23:02;6.30;;;3.45;;
20393;SDS011;10356;50.544;9.642;2023-07-02T05:25:29;4.80;;;3.00;;
20393;SDS011;10356;50.544;9.642;2023-07-02T05:27:55;6.30;;;3.10;;
20393;SDS011;10356;50.544;9.642;2023-07-02T05:30:21;7.90;;;3.45;;
20393;SDS011;10356;50.544;9.642;2023-07-02T05:32:48;10.25;;;3.72;;
20393;SDS011;10356;50.544;9.642;2023-07-02T05:35:14;6.93;;;3.45;;
20393;SDS011;10356;50.544;9.642;2023-07-02T05:37:43;7.70;;;3.08;;
20393;SDS011;10356;50.544;9.642;2023-07-02T05:40:10;6.35;;;3.03;;
20393;SDS011;10356;50.544;9.642;2023-07-02T05:42:37;4.78;;;3.30;;
20393;SDS011;10356;50.544;9.642;2023-07-02T05:45:04;5.68;;;3.05;;
20393;SDS011;10356;50.544;9.642;2023-07-02T05:47:30;5.88;;;3.10;;
20393;SDS011;10356;50.544;9.642;2023-07-02T05:49:57;6.95;;;3.30;;
20393;SDS011;10356;50.544;9.642;2023-07-02T05:52:23;7.53;;;3.42;;
20393;SDS011;10356;50.544;9.642;2023-07-02T05:54:51;9.55;;;4.10;;
20393;SDS011;10356;50.544;9.642;2023-07-02T05:57:18;6.97;;;3.00;;
20393;SDS011;10356;50.544;9.642;2023-07-02T05:59:44;6.57;;;2.60;;
20393;SDS011;10356;50.544;9.642;2023-07-02T06:02:10;8.32;;;3.00;;
20393;SDS011;10356;50.544;9.642;2023-07-02T06:04:37;4.30;;;2.80;;
20393;SDS011;10356;50.544;9.642;2023-07-02T06:07:03;4.55;;;2.80;;
20393;SDS011;10356;50.544;9.642;2023-07-02T06:09:30;10.50;;;3.53;;
20393;SDS011;10356;50.544;9.642;2023-07-02T06:11:57;10.13;;;3.55;;
20393;SDS011;10356;50.544;9.642;2023-07-02T06:14:24;5.75;;;2.80;;
20393;SDS011;10356;50.544;9.642;2023-07-02T06:16:51;7.93;;;3.80;;
20393;SDS011;10356;50.544;9.642;2023-07-02T06:19:20;11.43;;;3.40;;
20393;SDS011;10356;50.544;9.642;2023-07-02T06:21:47;5.07;;;3.08;;
20393;SDS011;10356;50.544;9.642;2023-07-02T06:24:13;9.68;;;3.50;;
20393;SDS011;10356;50.544;9.642;2023-07-02T06:26:40;5.70;;;3.35;;
20393;SDS011;10356;50.544;9.642;2023-07-02T06:29:07;8.93;;;3.70;;
20393;SDS011;10356;50.544;9.642;2023-07-02T06:31:34;6.97;;;3.08;;
20393;SDS011;10356;50.544;9.642;2023-07-02T06:34:00;6.15;;;3.38;;
20393;SDS011;10356;50.544;9.642;2023-07-02T06:36:27;6.53;;;3.50;;
20393;SDS011;10356;50.544;9.642;2023-07-02T06:38:53;6.60;;;3.78;;
20393;SDS011;10356;50.544;9.642;2023-07-02T06:41:20;6.97;;;4.35;;
20393;SDS011;10356;50.544;9.642;2023-07-02T06:43:46;6.97;;;4.50;;
20393;SDS011;10356;50.544;9.642;2023-07-02T06:46:14;8.02;;;4.90;;
20393;SDS011;10356;50.544;9.642;2023-07-02T06:48:41;10.88;;;4.47;;
20393;SDS011;10356;50.544;9.642;2023-07-02T06:51:07;6.97;;;4.60;;
20393;SDS011;10356;50.544;9.642;2023-07-02T06:53:34;7.38;;;4.60;;
20393;SDS011;10356;50.544;9.642;2023-07-02T06:56:00;10.63;;;5.05;;
20393;SDS011;10356;50.544;9.642;2023-07-02T06:58:27;9.40;;;4.95;;
20393;SDS011;10356;50.544;9.642;2023-07-02T07:00:53;9.27;;;4.65;;
20393;SDS011;10356;50.544;9.642;2023-07-02T07:03:21;11.13;;;5.47;;
20393;SDS011;10356;50.544;9.642;2023-07-02T07:05:47;13.10;;;6.03;;
20393;SDS011;10356;50.544;9.642;2023-07-02T07:08:14;12.25;;;5.35;;
20393;SDS011;10356;50.544;9.642;2023-07-02T07:10:41;14.55;;;6.10;;
20393;SDS011;10356;50.544;9.642;2023-07-02T07:13:09;10.95;;;5.95;;
20393;SDS011;10356;50.544;9.642;2023-07-02T07:15:36;11.10;;;5.80;;
20393;SDS011;10356;50.544;9.642;2023-07-02T07:18:02;12.98;;;6.10;;
20393;SDS011;10356;50.544;9.642;2023-07-02T07:20:31;13.57;;;6.65;;
20393;SDS011;10356;50.544;9.642;2023-07-02T07:22:57;9.10;;;6.13;;
20393;SDS011;10356;50.544;9.642;2023-07-02T07:25:24;14.18;;;6.38;;
20393;SDS011;10356;50.544;9.642;2023-07-02T07:27:51;12.45;;;6.85;;
20393;SDS011;10356;50.544;9.642;2023-07-02T07:30:17;14.35;;;7.13;;
20393;SDS011;10356;50.544;9.642;2023-07-02T07:32:47;13.63;;;6.32;;
20393;SDS011;10356;50.544;9.642;2023-07-02T07:35:14;12.52;;;6.75;;
20393;SDS011;10356;50.544;9.642;2023-07-02T07:37:42;13.40;;;5.97;;
20393;SDS011;10356;50.544;9.642;2023-07-02T07:40:09;10.93;;;6.60;;
20393;SDS011;10356;50.544;9.642;2023-07-02T07:42:36;14.00;;;6.82;;
20393;SDS011;10356;50.544;9.642;2023-07-02T07:45:02;13.77;;;6.80;;
20393;SDS011;10356;50.544;9.642;2023-07-02T07:47:30;13.68;;;6.95;;
20393;SDS011;10356;50.544;9.642;2023-07-02T07:49:56;12.68;;;6.70;;
20393;SDS011;10356;50.544;9.642;2023-07-02T07:52:23;15.35;;;7.50;;
20393;SDS011;10356;50.544;9.642;2023-07-02T07:54:50;13.20;;;6.40;;
20393;SDS011;10356;50.544;9.642;2023-07-02T07:57:17;15.10;;;6.95;;
20393;SDS011;10356;50.544;9.642;2023-07-02T07:59:43;14.88;;;7.00;;
20393;SDS011;10356;50.544;9.642;2023-07-02T08:02:10;13.32;;;7.70;;
20393;SDS011;10356;50.544;9.642;2023-07-02T08:04:36;12.38;;;7.18;;
20393;SDS011;10356;50.544;9.642;2023-07-02T08:07:03;11.68;;;7.30;;
20393;SDS011;10356;50.544;9.642;2023-07-02T08:09:31;12.43;;;8.32;;
20393;SDS011;10356;50.544;9.642;2023-07-02T08:11:59;15.77;;;9.55;;
20393;SDS011;10356;50.544;9.642;2023-07-02T08:14:25;17.38;;;9.35;;
20393;SDS011;10356;50.544;9.642;2023-07-02T08:16:52;16.30;;;9.07;;
20393;SDS011;10356;50.544;9.642;2023-07-02T08:19:19;17.92;;;10.15;;
20393;SDS011;10356;50.544;9.642;2023-07-02T08:21:46;17.25;;;10.13;;
20393;SDS011;10356;50.544;9.642;2023-07-02T08:24:12;14.85;;;9.52;;
20393;SDS011;10356;50.544;9.642;2023-07-02T08:26:39;15.02;;;8.50;;
20393;SDS011;10356;50.544;9.642;2023-07-02T08:29:07;15.32;;;8.52;;
20393;SDS011;10356;50.544;9.642;2023-07-02T08:31:33;14.45;;;9.32;;
20393;SDS011;10356;50.544;9.642;2023-07-02T08:34:00;19.00;;;9.32;;
20393;SDS011;10356;50.544;9.642;2023-07-02T08:36:26;16.98;;;9.73;;
20393;SDS011;10356;50.544;9.642;2023-07-02T08:38:53;14.55;;;10.10;;
20393;SDS011;10356;50.544;9.642;2023-07-02T08:41:20;18.02;;;10.15;;
20393;SDS011;10356;50.544;9.642;2023-07-02T08:43:47;15.95;;;9.00;;
20393;SDS011;10356;50.544;9.642;2023-07-02T08:46:15;15.50;;;9.95;;
20393;SDS011;10356;50.544;9.642;2023-07-02T08:48:42;19.73;;;11.57;;
20393;SDS011;10356;50.544;9.642;2023-07-02T08:51:09;14.38;;;9.57;;
20393;SDS011;10356;50.544;9.642;2023-07-02T08:53:36;15.25;;;10.35;;
20393;SDS011;10356;50.544;9.642;2023-07-02T08:56:03;18.02;;;11.18;;
20393;SDS011;10356;50.544;9.642;2023-07-02T08:58:30;17.60;;;11.48;;
20393;SDS011;10356;50.544;9.642;2023-07-02T09:01:06;18.92;;;11.40;;
20393;SDS011;10356;50.544;9.642;2023-07-02T09:03:34;16.20;;;10.18;;
20393;SDS011;10356;50.544;9.642;2023-07-02T09:06:03;17.58;;;11.02;;
20393;SDS011;10356;50.544;9.642;2023-07-02T09:08:29;20.38;;;11.05;;
20393;SDS011;10356;50.544;9.642;2023-07-02T09:11:08;16.92;;;9.90;;
20393;SDS011;10356;50.544;9.642;2023-07-02T09:13:42;13.77;;;9.25;;
20393;SDS011;10356;50.544;9.642;2023-07-02T09:16:19;16.65;;;9.90;;
20393;SDS011;10356;50.544;9.642;2023-07-02T09:19:01;14.05;;;9.70;;
20393;SDS011;10356;50.544;9.642;2023-07-02T09:21:37;18.98;;;10.10;;
20393;SDS011;10356;50.544;9.642;2023-07-02T09:24:12;14.15;;;9.20;;
20393;SDS011;10356;50.544;9.642;2023-07-02T09:26:42;12.05;;;9.30;;
20393;SDS011;10356;50.544;9.642;2023-07-02T09:29:09;17.73;;;9.75;;
20393;SDS011;10356;50.544;9.642;2023-07-02T09:31:42;16.23;;;9.38;;
20393;SDS011;10356;50.544;9.642;2023-07-02T09:34:11;15.43;;;9.20;;
20393;SDS011;10356;50.544;9.642;2023-07-02T09:36:37;18.73;;;9.93;;
20393;SDS011;10356;50.544;9.642;2023-07-02T09:39:06;17.92;;;10.40;;
20393;SDS011;10356;50.544;9.642;2023-07-02T09:41:33;15.93;;;9.95;;
20393;SDS011;10356;50.544;9.642;2023-07-02T09:44:00;17.65;;;9.60;;
20393;SDS011;10356;50.544;9.642;2023-07-02T09:46:28;22.52;;;10.40;;
20393;SDS011;10356;50.544;9.642;2023-07-02T09:48:56;16.50;;;10.38;;
20393;SDS011;10356;50.544;9.642;2023-07-02T09:51:25;17.83;;;9.52;;
20393;SDS011;10356;50.544;9.642;2023-07-02T09:53:52;15.55;;;9.60;;
20393;SDS011;10356;50.544;9.642;2023-07-02T09:56:18;19.58;;;9.75;;
20393;SDS011;10356;50.544;9.642;2023-07-02T09:58:46;16.60;;;10.88;;
20393;SDS011;10356;50.544;9.642;2023-07-02T10:01:13;16.92;;;9.02;;
20393;SDS011;10356;50.544;9.642;2023-07-02T10:03:39;18.13;;;9.60;;
20393;SDS011;10356;50.544;9.642;2023-07-02T10:06:06;15.68;;;10.15;;
20393;SDS011;10356;50.544;9.642;2023-07-02T10:08:34;20.90;;;16.55;;
20393;SDS011;10356;50.544;9.642;2023-07-02T10:11:11;36.88;;;30.88;;
20393;SDS011;10356;50.544;9.642;2023-07-02T10:13:39;19.13;;;13.13;;
20393;SDS011;10356;50.544;9.642;2023-07-02T10:16:06;17.75;;;11.20;;
20393;SDS011;10356;50.544;9.642;2023-07-02T10:18:33;16.25;;;10.40;;
20393;SDS011;10356;50.544;9.642;2023-07-02T10:20:59;15.90;;;10.63;;
20393;SDS011;10356;50.544;9.642;2023-07-02T10:23:33;16.65;;;10.73;;
20393;SDS011;10356;50.544;9.642;2023-07-02T10:26:13;17.88;;;10.82;;
20393;SDS011;10356;50.544;9.642;2023-07-02T10:28:40;17.80;;;10.55;;
20393;SDS011;10356;50.544;9.642;2023-07-02T10:31:17;75.82;;;14.82;;
20393;SDS011;10356;50.544;9.642;2023-07-02T10:33:44;18.70;;;13.07;;
20393;SDS011;10356;50.544;9.642;2023-07-02T10:36:17;26.50;;;20.05;;
20393;SDS011;10356;50.544;9.642;2023-07-02T10:38:46;13.52;;;9.65;;
20393;SDS011;10356;50.544;9.642;2023-07-02T10:41:22;12.75;;;9.82;;
20393;SDS011;10356;50.544;9.642;2023-07-02T10:43:50;14.70;;;9.77;;
20393;SDS011;10356;50.544;9.642;2023-07-02T10:46:18;19.35;;;11.43;;
20393;SDS011;10356;50.544;9.642;2023-07-02T10:51:20;18.75;;;10.23;;
20393;SDS011;10356;50.544;9.642;2023-07-02T10:53:59;17.13;;;10.52;;
20393;SDS011;10356;50.544;9.642;2023-07-02T10:56:27;17.45;;;12.15;;
20393;SDS011;10356;50.544;9.642;2023-07-02T10:58:54;20.15;;;14.65;;
20393;SDS011;10356;50.544;9.642;2023-07-02T11:01:24;16.27;;;8.52;;
20393;SDS011;10356;50.544;9.642;2023-07-02T11:03:55;13.77;;;8.82;;
20393;SDS011;10356;50.544;9.642;2023-07-02T11:06:23;16.58;;;9.40;;
20393;SDS011;10356;50.544;9.642;2023-07-02T11:08:50;12.65;;;8.10;;
20393;SDS011;10356;50.544;9.642;2023-07-02T11:11:18;10.90;;;7.72;;
20393;SDS011;10356;50.544;9.642;2023-07-02T11:13:45;17.60;;;8.55;;
20393;SDS011;10356;50.544;9.642;2023-07-02T11:16:24;10.50;;;7.65;;
20393;SDS011;10356;50.544;9.642;2023-07-02T11:18:53;14.15;;;8.55;;
20393;SDS011;10356;50.544;9.642;2023-07-02T11:21:20;13.63;;;8.05;;
20393;SDS011;10356;50.544;9.642;2023-07-02T11:23:46;11.02;;;8.27;;
20393;SDS011;10356;50.544;9.642;2023-07-02T11:26:13;12.52;;;8.30;;
20393;SDS011;10356;50.544;9.642;2023-07-02T11:28:48;12.95;;;8.38;;
20393;SDS011;10356;50.544;9.642;2023-07-02T11:31:25;11.95;;;7.95;;
20393;SDS011;10356;50.544;9.642;2023-07-02T11:33:52;13.30;;;8.90;;
20393;SDS011;10356;50.544;9.642;2023-07-02T11:36:20;14.73;;;8.18;;
20393;SDS011;10356;50.544;9.642;2023-07-02T11:38:48;11.27;;;7.95;;
20393;SDS011;10356;50.544;9.642;2023-07-02T11:41:15;14.38;;;8.55;;
20393;SDS011;10356;50.544;9.642;2023-07-02T11:43:41;14.60;;;8.45;;
20393;SDS011;10356;50.544;9.642;2023-07-02T11:46:09;12.38;;;8.68;;
20393;SDS011;10356;50.544;9.642;2023-07-02T11:48:36;10.88;;;8.43;;
20393;SDS011;10356;50.544;9.642;2023-07-02T11:51:02;12.88;;;8.60;;
20393;SDS011;10356;50.544;9.642;2023-07-02T11:53:29;16.77;;;9.10;;
20393;SDS011;10356;50.544;9.642;2023-07-02T11:55:55;12.70;;;9.13;;
20393;SDS011;10356;50.544;9.642;2023-07-02T11:58:22;12.88;;;9.40;;
20393;SDS011;10356;50.544;9.642;2023-07-02T12:00:48;11.75;;;8.98;;
20393;SDS011;10356;50.544;9.642;2023-07-02T12:03:16;13.32;;;8.32;;
20393;SDS011;10356;50.544;9.642;2023-07-02T12:05:42;11.85;;;8.43;;
20393;SDS011;10356;50.544;9.642;2023-07-02T12:08:09;13.13;;;8.63;;
20393;SDS011;10356;50.544;9.642;2023-07-02T12:10:35;15.43;;;8.63;;
20393;SDS011;10356;50.544;9.642;2023-07-02T12:13:02;13.57;;;8.82;;
20393;SDS011;10356;50.544;9.642;2023-07-02T12:15:28;11.13;;;8.60;;
20393;SDS011;10356;50.544;9.642;2023-07-02T12:17:55;12.45;;;8.95;;
20393;SDS011;10356;50.544;9.642;2023-07-02T12:20:23;13.27;;;7.93;;
20393;SDS011;10356;50.544;9.642;2023-07-02T12:22:49;18.08;;;9.25;;
20393;SDS011;10356;50.544;9.642;2023-07-02T12:25:16;14.25;;;8.80;;
20393;SDS011;10356;50.544;9.642;2023-07-02T12:27:42;14.65;;;9.25;;
20393;SDS011;10356;50.544;9.642;2023-07-02T12:30:09;13.65;;;8.70;;
20393;SDS011;10356;50.544;9.642;2023-07-02T12:32:37;16.48;;;8.65;;
20393;SDS011;10356;50.544;9.642;2023-07-02T12:35:04;14.13;;;9.20;;
20393;SDS011;10356;50.544;9.642;2023-07-02T12:37:33;13.10;;;9.20;;
20393;SDS011;10356;50.544;9.642;2023-07-02T12:39:59;15.82;;;8.80;;
20393;SDS011;10356;50.544;9.642;2023-07-02T12:42:26;15.55;;;8.95;;
20393;SDS011;10356;50.544;9.642;2023-07-02T12:44:53;14.07;;;8.85;;
20393;SDS011;10356;50.544;9.642;2023-07-02T12:47:19;15.77;;;9.27;;
20393;SDS011;10356;50.544;9.642;2023-07-02T12:49:46;14.10;;;9.07;;
20393;SDS011;10356;50.544;9.642;2023-07-02T12:52:12;11.88;;;9.15;;
20393;SDS011;10356;50.544;9.642;2023-07-02T12:54:40;13.18;;;8.80;;
20393;SDS011;10356;50.544;9.642;2023-07-02T12:57:06;12.50;;;8.88;;
20393;SDS011;10356;50.544;9.642;2023-07-02T12:59:33;12.85;;;8.43;;
20393;SDS011;10356;50.544;9.642;2023-07-02T13:01:59;13.63;;;8.85;;
20393;SDS011;10356;50.544;9.642;2023-07-02T13:04:26;14.50;;;10.00;;
20393;SDS011;10356;50.544;9.642;2023-07-02T13:06:52;16.17;;;8.60;;
20393;SDS011;10356;50.544;9.642;2023-07-02T13:09:19;13.90;;;8.85;;
20393;SDS011;10356;50.544;9.642;2023-07-02T13:11:48;15.15;;;8.70;;
20393;SDS011;10356;50.544;9.642;2023-07-02T13:14:15;12.75;;;7.90;;
20393;SDS011;10356;50.544;9.642;2023-07-02T13:16:42;11.30;;;8.00;;
20393;SDS011;10356;50.544;9.642;2023-07-02T13:19:08;13.20;;;7.65;;
20393;SDS011;10356;50.544;9.642;2023-07-02T13:21:36;10.63;;;7.75;;
20393;SDS011;10356;50.544;9.642;2023-07-02T13:24:02;12.55;;;8.30;;
20393;SDS011;10356;50.544;9.642;2023-07-02T13:26:29;15.27;;;8.57;;
20393;SDS011;10356;50.544;9.642;2023-07-02T13:28:56;12.65;;;7.93;;
20393;SDS011;10356;50.544;9.642;2023-07-02T13:31:23;12.48;;;8.57;;
20393;SDS011;10356;50.544;9.642;2023-07-02T13:33:49;12.65;;;8.85;;
20393;SDS011;10356;50.544;9.642;2023-07-02T13:36:16;12.38;;;8.35;;
20393;SDS011;10356;50.544;9.642;2023-07-02T13:38:43;13.90;;;8.57;;
20393;SDS011;10356;50.544;9.642;2023-07-02T13:41:09;11.82;;;8.57;;
20393;SDS011;10356;50.544;9.642;2023-07-02T13:43:36;12.95;;;8.45;;
20393;SDS011;10356;50.544;9.642;2023-07-02T13:46:03;13.15;;;8.63;;
20393;SDS011;10356;50.544;9.642;2023-07-02T13:48:30;15.82;;;8.25;;
20393;SDS011;10356;50.544;9.642;2023-07-02T13:50:56;13.18;;;9.05;;
20393;SDS011;10356;50.544;9.642;2023-07-02T13:53:23;15.23;;;8.95;;
20393;SDS011;10356;50.544;9.642;2023-07-02T13:55:50;17.15;;;9.35;;
20393;SDS011;10356;50.544;9.642;2023-07-02T13:58:16;16.65;;;9.75;;
20393;SDS011;10356;50.544;9.642;2023-07-02T14:00:44;15.55;;;9.50;;
20393;SDS011;10356;50.544;9.642;2023-07-02T14:03:10;16.17;;;9.23;;
20393;SDS011;10356;50.544;9.642;2023-07-02T14:05:37;15.70;;;8.68;;
20393;SDS011;10356;50.544;9.642;2023-07-02T14:08:03;12.85;;;8.70;;
20393;SDS011;10356;50.544;9.642;2023-07-02T14:10:30;14.98;;;9.73;;
20393;SDS011;10356;50.544;9.642;2023-07-02T14:12:56;14.27;;;8.80;;
20393;SDS011;10356;50.544;9.642;2023-07-02T14:15:24;16.23;;;9.55;;
20393;SDS011;10356;50.544;9.642;2023-07-02T14:17:53;14.00;;;8.77;;
20393;SDS011;10356;50.544;9.642;2023-07-02T14:20:20;14.70;;;9.32;;
20393;SDS011;10356;50.544;9.642;2023-07-02T14:22:47;11.80;;;8.77;;
20393;SDS011;10356;50.544;9.642;2023-07-02T14:25:13;14.90;;;9.30;;
20393;SDS011;10356;50.544;9.642;2023-07-02T14:27:40;13.52;;;8.93;;
20393;SDS011;10356;50.544;9.642;2023-07-02T14:30:07;14.15;;;9.15;;
20393;SDS011;10356;50.544;9.642;2023-07-02T14:32:34;13.13;;;9.13;;
20393;SDS011;10356;50.544;9.642;2023-07-02T14:35:02;14.80;;;9.32;;
20393;SDS011;10356;50.544;9.642;2023-07-02T14:37:29;14.95;;;9.52;;
20393;SDS011;10356;50.544;9.642;2023-07-02T14:39:56;16.17;;;9.82;;
20393;SDS011;10356;50.544;9.642;2023-07-02T14:42:22;15.90;;;9.60;;